createdAt,value
2019-06-26T00:00:41.675Z,99.90
2019-06-26T00:03:09.116Z,99.90
2019-06-26T00:05:36.696Z,99.90
2019-06-26T00:08:04.460Z,99.90
2019-06-26T00:10:32.377Z,99.90
2019-06-26T00:13:00.145Z,99.90
2019-06-26T00:15:27.645Z,99.90
2019-06-26T00:17:55.173Z,99.90
2019-06-26T00:20:22.666Z,99.90
2019-06-26T00:22:50.494Z,99.90
2019-06-26T00:25:18.304Z,99.90
2019-06-26T00:27:45.800Z,99.90
2019-06-26T00:30:15.580Z,99.90
2019-06-26T00:32:43.155Z,99.90
2019-06-26T00:35:10.779Z,99.90
2019-06-26T00:37:38.325Z,99.90
2019-06-26T00:40:05.810Z,99.90
2019-06-26T00:42:33.685Z,99.90
2019-06-26T00:45:01.145Z,99.90
2019-06-26T00:47:28.682Z,99.90
2019-06-26T00:49:56.461Z,99.90
2019-06-26T00:52:23.973Z,99.90
2019-06-26T00:54:51.375Z,99.90
2019-06-26T00:57:18.905Z,99.90
2019-06-26T00:59:46.441Z,99.90
2019-06-26T01:02:14.310Z,99.90
2019-06-26T01:04:44.457Z,99.90
2019-06-26T01:07:11.947Z,99.90
2019-06-26T01:09:39.595Z,99.90
2019-06-26T01:12:07.166Z,99.90
2019-06-26T01:14:34.656Z,99.90
2019-06-26T01:17:02.264Z,99.90
2019-06-26T01:19:29.702Z,99.90
2019-06-26T01:21:57.259Z,99.90
2019-06-26T01:24:24.907Z,99.90
2019-06-26T01:26:52.463Z,99.90
2019-06-26T01:29:20.245Z,99.90
2019-06-26T01:31:47.696Z,99.90
2019-06-26T01:34:15.160Z,99.90
2019-06-26T01:36:42.637Z,99.90
2019-06-26T01:39:10.524Z,99.90
2019-06-26T01:41:37.974Z,99.90
2019-06-26T01:44:14.860Z,99.90
2019-06-26T01:46:35.188Z,99.90
2019-06-26T01:49:02.696Z,99.90
2019-06-26T01:51:30.257Z,99.90
2019-06-26T01:53:57.791Z,99.90
2019-06-26T01:56:25.842Z,99.90
2019-06-26T01:58:53.343Z,99.90
2019-06-26T02:01:21.141Z,99.90
2019-06-26T02:03:49.074Z,99.90
2019-06-26T02:06:16.627Z,99.90
2019-06-26T02:08:44.131Z,99.90
2019-06-26T02:11:11.921Z,99.90
2019-06-26T02:13:39.436Z,99.90
2019-06-26T02:16:06.915Z,99.90
2019-06-26T02:18:56.815Z,99.90
2019-06-26T02:21:25.017Z,99.90
2019-06-26T02:23:52.553Z,99.90
2019-06-26T02:26:20.383Z,99.90
2019-06-26T02:28:47.900Z,99.90
2019-06-26T02:31:15.374Z,99.90
2019-06-26T02:33:43.159Z,99.90
2019-06-26T02:36:10.851Z,99.90
2019-06-26T02:38:38.678Z,99.90
2019-06-26T02:41:06.185Z,99.90
2019-06-26T02:43:33.982Z,99.90
2019-06-26T02:46:02.148Z,99.90
2019-06-26T02:48:29.785Z,99.90
2019-06-26T02:50:57.296Z,99.90
2019-06-26T02:53:24.797Z,99.90
2019-06-26T02:55:52.674Z,99.90
2019-06-26T02:58:20.243Z,99.90
2019-06-26T03:00:47.804Z,99.90
2019-06-26T03:03:15.582Z,99.90
2019-06-26T03:05:43.074Z,99.90
2019-06-26T03:08:10.634Z,99.90
2019-06-26T03:10:38.118Z,99.90
2019-06-26T03:13:05.574Z,99.90
2019-06-26T03:15:32.999Z,99.90
2019-06-26T03:18:00.498Z,99.90
2019-06-26T03:20:31.675Z,99.90
2019-06-26T03:22:59.147Z,99.90
2019-06-26T03:25:27.051Z,99.90
2019-06-26T03:27:54.912Z,99.90
2019-06-26T03:30:22.427Z,99.90
2019-06-26T03:32:49.943Z,99.90
2019-06-26T03:35:17.761Z,99.90
2019-06-26T03:37:45.167Z,99.90
2019-06-26T03:40:13.443Z,99.90
2019-06-26T03:42:40.827Z,99.90
2019-06-26T03:45:24.237Z,99.90
2019-06-26T03:47:38.219Z,99.90
2019-06-26T03:50:05.699Z,99.90
2019-06-26T03:52:33.257Z,99.90
2019-06-26T03:55:01.083Z,99.90
2019-06-26T03:57:28.615Z,99.90
2019-06-26T03:59:56.117Z,99.90
2019-06-26T04:02:23.549Z,99.90
2019-06-26T04:04:50.949Z,99.90
2019-06-26T04:07:18.677Z,99.90
2019-06-26T04:09:46.619Z,99.90
2019-06-26T04:12:14.131Z,99.90
2019-06-26T04:14:42.011Z,99.90
2019-06-26T04:17:09.416Z,99.90
2019-06-26T04:19:36.794Z,99.90
2019-06-26T04:22:04.243Z,99.90
2019-06-26T04:24:31.702Z,99.90
2019-06-26T04:26:59.639Z,99.90
2019-06-26T04:29:27.417Z,99.90
2019-06-26T04:31:56.059Z,99.90
2019-06-26T04:34:23.599Z,99.90
2019-06-26T04:36:51.174Z,99.90
2019-06-26T04:39:18.645Z,99.90
2019-06-26T04:41:46.056Z,99.90
2019-06-26T04:44:14.206Z,99.90
2019-06-26T04:46:41.630Z,99.90
2019-06-26T04:49:09.072Z,99.90
2019-06-26T04:51:36.875Z,99.90
2019-06-26T04:54:04.393Z,99.90
2019-06-26T04:56:31.861Z,99.90
2019-06-26T04:58:59.948Z,99.90
2019-06-26T05:01:27.428Z,99.90
2019-06-26T05:03:54.879Z,99.90
2019-06-26T05:06:22.349Z,99.90
2019-06-26T05:08:49.748Z,99.90
2019-06-26T05:11:17.329Z,99.90
2019-06-26T05:13:45.083Z,99.90
2019-06-26T05:16:15.726Z,99.90
2019-06-26T05:18:42.305Z,99.90
2019-06-26T05:21:09.773Z,99.90
2019-06-26T05:23:37.194Z,99.90
2019-06-26T05:26:04.714Z,99.90
2019-06-26T05:28:32.147Z,99.90
2019-06-26T05:30:59.717Z,99.90
2019-06-26T05:33:27.238Z,99.90
2019-06-26T05:35:54.675Z,99.90
2019-06-26T05:38:22.467Z,99.90
2019-06-26T05:40:50.048Z,99.90
2019-06-26T05:43:17.934Z,99.90
2019-06-26T05:45:45.532Z,99.90
2019-06-26T05:48:13.058Z,99.90
2019-06-26T05:50:40.580Z,99.90
2019-06-26T05:53:08.044Z,99.90
2019-06-26T05:55:35.943Z,99.90
2019-06-26T05:58:03.453Z,99.90
2019-06-26T06:00:30.886Z,99.90
2019-06-26T06:02:59.119Z,99.90
2019-06-26T06:05:27.064Z,99.90
2019-06-26T06:07:54.449Z,99.90
2019-06-26T06:10:22.287Z,99.90
2019-06-26T06:12:50.067Z,99.90
2019-06-26T06:15:18.818Z,99.90
2019-06-26T06:17:46.326Z,99.90
2019-06-26T06:20:14.300Z,99.90
2019-06-26T06:22:41.979Z,99.90
2019-06-26T06:25:09.422Z,99.90
2019-06-26T06:27:36.883Z,99.90
2019-06-26T06:30:05.893Z,99.90
2019-06-26T06:32:33.460Z,99.90
2019-06-26T06:35:00.996Z,99.90
2019-06-26T06:37:28.870Z,99.90
2019-06-26T06:39:56.551Z,99.90
2019-06-26T06:42:24.148Z,99.90
2019-06-26T06:44:51.876Z,99.90
2019-06-26T06:47:19.612Z,99.90
2019-06-26T06:49:47.064Z,99.90
2019-06-26T06:52:16.577Z,99.90
2019-06-26T06:54:44.186Z,99.90
2019-06-26T06:57:11.683Z,99.90
2019-06-26T06:59:39.170Z,99.90
2019-06-26T07:02:06.674Z,99.90
2019-06-26T07:04:34.102Z,99.90
2019-06-26T07:07:01.937Z,99.90
2019-06-26T07:09:32.367Z,99.90
2019-06-26T07:11:59.947Z,99.90
2019-06-26T07:14:27.460Z,99.90
2019-06-26T07:16:55.427Z,99.90
2019-06-26T07:19:22.972Z,99.90
2019-06-26T07:21:50.499Z,99.90
2019-06-26T07:24:18.009Z,99.90
2019-06-26T07:26:45.562Z,99.90
2019-06-26T07:29:13.154Z,99.90
2019-06-26T07:31:40.715Z,99.90
2019-06-26T07:34:08.826Z,99.90
2019-06-26T07:36:36.274Z,99.90
2019-06-26T07:39:05.156Z,99.90
2019-06-26T07:41:32.935Z,99.90
2019-06-26T07:44:00.755Z,99.90
2019-06-26T07:46:28.259Z,99.90
2019-06-26T07:48:57.616Z,99.90
2019-06-26T07:51:25.062Z,99.90
2019-06-26T07:53:52.700Z,99.90
2019-06-26T07:56:20.374Z,99.90
2019-06-26T07:58:48.102Z,99.90
2019-06-26T08:01:15.681Z,99.90
2019-06-26T08:03:43.488Z,99.90
2019-06-26T08:06:11.011Z,99.90
2019-06-26T08:08:38.497Z,99.90
2019-06-26T08:11:06.709Z,99.90
2019-06-26T08:13:34.502Z,99.90
2019-06-26T08:16:02.024Z,99.90
2019-06-26T08:18:29.572Z,99.90
2019-06-26T08:21:11.577Z,99.90
2019-06-26T08:23:26.479Z,99.90
2019-06-26T08:25:54.062Z,99.90
2019-06-26T08:28:21.556Z,99.90
2019-06-26T08:30:48.882Z,99.90
2019-06-26T08:33:16.656Z,99.90
2019-06-26T08:35:44.239Z,99.90
2019-06-26T08:38:15.497Z,99.90
2019-06-26T08:40:40.985Z,99.90
2019-06-26T08:43:08.468Z,99.90
2019-06-26T08:45:36.138Z,99.90
2019-06-26T08:48:17.443Z,99.50
2019-06-26T08:50:32.989Z,99.90
2019-06-26T08:53:00.809Z,99.50
2019-06-26T08:55:28.173Z,98.50
2019-06-26T08:57:55.680Z,98.50
2019-06-26T09:00:23.287Z,97.40
2019-06-26T09:02:51.023Z,96.30
2019-06-26T09:05:18.581Z,96.30
2019-06-26T09:07:46.234Z,95.90
2019-06-26T09:10:13.859Z,95.70
2019-06-26T09:12:41.740Z,91.80
2019-06-26T09:15:09.641Z,91.90
2019-06-26T09:17:37.133Z,91.30
2019-06-26T09:20:05.472Z,90.30
2019-06-26T09:22:33.098Z,90.70
2019-06-26T09:25:00.947Z,90.50
2019-06-26T09:27:28.330Z,90.50
2019-06-26T09:29:55.838Z,90.10
2019-06-26T09:32:23.280Z,88.60
2019-06-26T09:34:50.779Z,85.30
2019-06-26T09:37:18.252Z,83.20
2019-06-26T09:39:45.762Z,84.70
2019-06-26T09:44:41.148Z,78.80
2019-06-26T09:47:09.467Z,78.60
2019-06-26T09:49:36.970Z,77.40
2019-06-26T09:52:04.382Z,77.00
2019-06-26T09:54:32.082Z,75.90
2019-06-26T09:56:59.479Z,71.90
2019-06-26T09:59:26.925Z,74.40
2019-06-26T10:01:54.448Z,80.50
2019-06-26T10:04:21.996Z,75.10
2019-06-26T10:06:49.459Z,71.80
2019-06-26T10:09:16.885Z,71.50
2019-06-26T10:11:44.320Z,70.60
2019-06-26T10:14:11.872Z,67.70
2019-06-26T10:16:39.685Z,67.20
2019-06-26T10:19:10.559Z,71.70
2019-06-26T10:21:37.046Z,70.80
2019-06-26T10:24:04.553Z,71.10
2019-06-26T10:26:32.766Z,72.40
2019-06-26T10:29:00.634Z,68.00
2019-06-26T10:31:28.459Z,66.70
2019-06-26T10:33:56.202Z,66.80
2019-06-26T10:36:24.803Z,66.00
2019-06-26T10:38:52.360Z,67.10
2019-06-26T10:41:19.907Z,67.40
2019-06-26T10:43:47.435Z,60.90
2019-06-26T10:46:14.995Z,61.50
2019-06-26T10:48:42.357Z,60.90
2019-06-26T10:51:09.889Z,60.40
2019-06-26T10:53:37.418Z,59.10
2019-06-26T10:56:04.921Z,59.60
2019-06-26T10:58:32.436Z,59.80
2019-06-26T11:00:59.970Z,57.80
2019-06-26T11:03:27.498Z,55.30
2019-06-26T11:05:55.017Z,53.30
2019-06-26T11:08:22.543Z,54.40
2019-06-26T11:10:50.375Z,56.30
2019-06-26T11:13:17.796Z,59.10
2019-06-26T11:15:45.523Z,57.10
2019-06-26T11:18:13.243Z,56.40
2019-06-26T11:20:40.805Z,55.90
2019-06-26T11:23:08.306Z,53.60
2019-06-26T11:25:36.157Z,52.80
2019-06-26T11:28:03.725Z,54.20
2019-06-26T11:30:31.420Z,54.70
2019-06-26T11:32:58.962Z,55.00
2019-06-26T11:35:26.491Z,55.00
2019-06-26T11:37:53.949Z,55.60
2019-06-26T11:40:22.181Z,55.40
2019-06-26T11:42:49.679Z,56.40
2019-06-26T11:45:17.393Z,53.70
2019-06-26T11:47:46.036Z,56.80
2019-06-26T11:50:14.389Z,53.90
2019-06-26T11:52:41.901Z,53.80
2019-06-26T11:55:10.663Z,52.60
2019-06-26T11:57:38.655Z,52.70
2019-06-26T12:00:08.197Z,51.80
2019-06-26T12:02:35.702Z,52.10
2019-06-26T12:05:04.033Z,53.40
2019-06-26T12:07:31.415Z,52.40
2019-06-26T12:09:58.900Z,52.80
2019-06-26T12:12:26.459Z,52.50
2019-06-26T12:14:53.998Z,53.70
2019-06-26T12:17:21.554Z,52.60
2019-06-26T12:19:49.286Z,53.30
2019-06-26T12:22:17.129Z,53.00
2019-06-26T12:24:44.492Z,56.30
2019-06-26T12:27:12.418Z,53.60
2019-06-26T12:29:40.135Z,55.00
2019-06-26T12:32:07.584Z,56.50
2019-06-26T12:34:35.450Z,57.50
2019-06-26T12:37:02.864Z,59.00
2019-06-26T12:39:30.648Z,59.90
2019-06-26T12:41:58.192Z,61.40
2019-06-26T12:44:26.030Z,65.00
2019-06-26T12:46:53.527Z,63.50
2019-06-26T12:49:21.228Z,61.30
2019-06-26T12:51:49.033Z,62.90
2019-06-26T12:54:16.539Z,64.00
2019-06-26T12:56:44.125Z,65.50
2019-06-26T12:59:11.950Z,64.70
2019-06-26T13:01:39.341Z,62.10
2019-06-26T13:04:06.886Z,60.90
2019-06-26T13:06:34.923Z,60.50
2019-06-26T13:09:02.680Z,62.50
2019-06-26T13:11:30.283Z,61.10
2019-06-26T13:14:02.496Z,60.00
2019-06-26T13:16:27.473Z,60.50
2019-06-26T13:18:55.668Z,62.50
2019-06-26T13:21:23.236Z,60.20
2019-06-26T13:23:50.583Z,60.80
2019-06-26T13:26:17.998Z,60.40
2019-06-26T13:28:45.462Z,60.10
2019-06-26T13:31:13.223Z,60.40
2019-06-26T13:33:40.724Z,61.20
2019-06-26T13:36:08.221Z,60.00
2019-06-26T13:38:35.701Z,64.00
2019-06-26T13:41:03.688Z,64.70
2019-06-26T13:43:31.493Z,63.60
2019-06-26T13:45:59.439Z,64.80
2019-06-26T13:48:27.430Z,64.70
2019-06-26T13:51:08.915Z,69.70
2019-06-26T13:53:24.881Z,66.50
2019-06-26T13:55:52.633Z,63.60
2019-06-26T13:58:20.214Z,63.00
2019-06-26T14:00:48.010Z,63.90
2019-06-26T14:03:15.485Z,64.50
2019-06-26T14:05:43.016Z,63.20
2019-06-26T14:08:10.490Z,62.60
2019-06-26T14:10:38.477Z,62.90
2019-06-26T14:13:06.055Z,65.40
2019-06-26T14:15:33.617Z,68.20
2019-06-26T14:18:01.705Z,65.30
2019-06-26T14:20:29.198Z,63.50
2019-06-26T14:22:56.673Z,63.20
2019-06-26T14:25:24.160Z,63.40
2019-06-26T14:27:51.661Z,64.10
2019-06-26T14:30:19.373Z,64.30
2019-06-26T14:32:47.129Z,65.60
2019-06-26T14:35:16.630Z,64.90
2019-06-26T14:37:44.112Z,65.30
2019-06-26T14:40:12.203Z,64.70
2019-06-26T14:42:39.792Z,64.90
2019-06-26T14:45:08.012Z,65.80
2019-06-26T14:47:35.768Z,66.10
2019-06-26T14:50:04.266Z,66.50
2019-06-26T14:52:34.851Z,66.40
2019-06-26T14:55:01.460Z,65.30
2019-06-26T14:57:33.196Z,64.20
2019-06-26T15:00:01.552Z,64.80
2019-06-26T15:02:31.799Z,65.10
2019-06-26T15:04:58.476Z,66.20
2019-06-26T15:07:25.999Z,67.30
2019-06-26T15:09:53.755Z,66.10
2019-06-26T15:12:22.098Z,64.70
2019-06-26T15:14:49.550Z,64.20
2019-06-26T15:17:16.970Z,65.10
2019-06-26T15:19:44.549Z,67.00
2019-06-26T15:22:12.047Z,66.70
2019-06-26T15:24:41.738Z,67.80
2019-06-26T15:27:09.916Z,67.20
2019-06-26T15:29:37.761Z,69.60
2019-06-26T15:32:05.888Z,67.40
2019-06-26T15:34:33.776Z,67.90
2019-06-26T15:37:04.371Z,67.60
2019-06-26T15:39:32.216Z,66.80
2019-06-26T15:41:59.735Z,67.80
2019-06-26T15:44:27.529Z,67.20
2019-06-26T15:46:55.061Z,67.90
2019-06-26T15:49:22.514Z,68.30
2019-06-26T15:51:50.314Z,68.50
2019-06-26T15:54:17.986Z,68.70
2019-06-26T15:56:46.743Z,69.40
2019-06-26T15:59:14.236Z,69.80
2019-06-26T16:01:42.186Z,70.00
2019-06-26T16:04:09.753Z,70.50
2019-06-26T16:06:37.270Z,71.00
2019-06-26T16:09:05.276Z,72.20
2019-06-26T16:11:33.125Z,71.10
2019-06-26T16:14:00.912Z,71.50
2019-06-26T16:16:29.120Z,70.60
2019-06-26T16:19:02.286Z,71.10
2019-06-26T16:21:30.068Z,71.30
2019-06-26T16:23:58.046Z,71.30
2019-06-26T16:26:25.812Z,71.20
2019-06-26T16:28:53.518Z,71.00
2019-06-26T16:31:21.874Z,71.60
2019-06-26T16:33:49.611Z,73.20
2019-06-26T16:36:17.002Z,73.20
2019-06-26T16:38:44.656Z,73.10
2019-06-26T16:41:12.501Z,71.60
2019-06-26T16:43:39.961Z,73.60
2019-06-26T16:46:07.469Z,73.00
2019-06-26T16:48:35.088Z,72.10
2019-06-26T16:51:02.688Z,71.40
2019-06-26T16:53:30.317Z,72.60
2019-06-26T16:55:58.434Z,74.70
2019-06-26T16:58:26.355Z,73.80
2019-06-26T17:00:53.919Z,74.60
2019-06-26T17:03:21.922Z,71.40
2019-06-26T17:05:49.442Z,71.40
2019-06-26T17:08:17.392Z,71.40
2019-06-26T17:10:44.979Z,72.40
2019-06-26T17:13:12.324Z,72.60
2019-06-26T17:15:39.765Z,73.20
2019-06-26T17:18:07.262Z,73.70
2019-06-26T17:20:34.758Z,73.70
2019-06-26T17:23:06.201Z,74.40
2019-06-26T17:25:32.044Z,73.40
2019-06-26T17:27:59.615Z,72.70
2019-06-26T17:30:27.162Z,71.70
2019-06-26T17:32:55.187Z,72.70
2019-06-26T17:35:22.534Z,72.80
2019-06-26T17:37:50.019Z,72.60
2019-06-26T17:40:17.659Z,73.80
2019-06-26T17:42:45.202Z,73.40
2019-06-26T17:45:22.696Z,73.30
2019-06-26T17:47:50.760Z,74.20
2019-06-26T17:50:18.436Z,73.90
2019-06-26T17:52:45.904Z,74.80
2019-06-26T17:55:13.599Z,74.50
2019-06-26T17:57:41.011Z,74.10
2019-06-26T18:00:09.410Z,75.10
2019-06-26T18:02:37.621Z,76.50
2019-06-26T18:05:05.274Z,76.30
2019-06-26T18:07:32.870Z,76.30
2019-06-26T18:10:00.471Z,76.10
2019-06-26T18:12:27.987Z,76.70
2019-06-26T18:14:55.515Z,76.70
2019-06-26T18:17:23.234Z,77.20
2019-06-26T18:19:53.824Z,77.20
2019-06-26T18:22:20.713Z,76.30
2019-06-26T18:24:49.017Z,77.20
2019-06-26T18:27:16.772Z,78.00
2019-06-26T18:29:44.285Z,78.60
2019-06-26T18:32:12.259Z,77.60
2019-06-26T18:34:40.179Z,78.20
2019-06-26T18:37:09.219Z,80.10
2019-06-26T18:39:37.444Z,78.60
2019-06-26T18:42:05.395Z,78.30
2019-06-26T18:44:32.894Z,79.10
2019-06-26T18:47:00.447Z,79.30
2019-06-26T18:49:28.218Z,78.80
2019-06-26T18:51:56.092Z,79.30
2019-06-26T18:54:24.237Z,79.60
2019-06-26T18:56:52.091Z,81.30
2019-06-26T18:59:19.566Z,80.70
2019-06-26T19:01:46.933Z,81.10
2019-06-26T19:04:15.185Z,81.70
2019-06-26T19:06:43.594Z,82.00
2019-06-26T19:09:10.989Z,82.50
2019-06-26T19:11:38.370Z,83.00
2019-06-26T19:14:06.537Z,83.50
2019-06-26T19:16:36.252Z,84.20
2019-06-26T19:19:03.976Z,85.30
2019-06-26T19:21:31.545Z,86.40
2019-06-26T19:24:09.502Z,88.10
2019-06-26T19:26:28.676Z,89.70
2019-06-26T19:28:56.784Z,90.10
2019-06-26T19:31:24.361Z,90.60
2019-06-26T19:33:52.485Z,90.60
2019-06-26T19:36:24.188Z,91.20
2019-06-26T19:38:49.671Z,91.30
2019-06-26T19:41:17.184Z,91.70
2019-06-26T19:43:44.561Z,92.10
2019-06-26T19:46:12.045Z,92.80
2019-06-26T19:48:39.869Z,93.00
2019-06-26T19:51:07.402Z,93.20
2019-06-26T19:53:35.183Z,93.10
2019-06-26T19:56:02.728Z,93.70
2019-06-26T19:58:30.442Z,94.80
2019-06-26T20:00:58.172Z,95.70
2019-06-26T20:03:25.696Z,96.20
2019-06-26T20:05:53.526Z,96.80
2019-06-26T20:08:21.344Z,96.80
2019-06-26T20:10:48.865Z,96.60
2019-06-26T20:13:16.999Z,96.50
2019-06-26T20:15:44.487Z,96.50
2019-06-26T20:18:12.347Z,97.20
2019-06-26T20:20:39.880Z,98.20
2019-06-26T20:23:07.789Z,99.00
2019-06-26T20:25:35.239Z,99.20
2019-06-26T20:28:02.679Z,99.40
2019-06-26T20:30:32.634Z,99.90
2019-06-26T20:33:00.222Z,99.90
2019-06-26T20:35:27.703Z,99.90
2019-06-26T20:37:55.067Z,99.90
2019-06-26T20:40:22.495Z,99.90
2019-06-26T20:42:49.989Z,99.90
2019-06-26T20:45:17.520Z,99.90
2019-06-26T20:47:44.991Z,99.90
2019-06-26T20:50:13.656Z,99.90
2019-06-26T20:52:41.679Z,99.90
2019-06-26T20:55:09.509Z,99.90
2019-06-26T20:57:36.937Z,99.90
2019-06-26T21:00:04.745Z,99.90
2019-06-26T21:02:32.182Z,99.90
2019-06-26T21:04:59.931Z,99.90
2019-06-26T21:07:27.857Z,99.90
2019-06-26T21:09:55.357Z,99.90
2019-06-26T21:12:23.324Z,99.90
2019-06-26T21:14:50.844Z,99.90
2019-06-26T21:17:18.311Z,99.90
2019-06-26T21:19:46.088Z,99.90
2019-06-26T21:22:13.606Z,99.90
2019-06-26T21:24:41.153Z,99.90
2019-06-26T21:27:08.636Z,99.90
2019-06-26T21:29:36.193Z,99.90
2019-06-26T21:32:03.700Z,99.90
2019-06-26T21:34:31.178Z,99.90
2019-06-26T21:36:58.549Z,99.90
2019-06-26T21:39:26.737Z,99.90
2019-06-26T21:41:54.289Z,99.90
2019-06-26T21:44:21.776Z,99.90
2019-06-26T21:46:49.598Z,99.90
2019-06-26T21:49:17.157Z,99.90
2019-06-26T21:51:44.916Z,99.90
2019-06-26T21:54:12.368Z,99.90
2019-06-26T21:56:39.731Z,99.90
2019-06-26T21:59:07.517Z,99.90
2019-06-26T22:01:35.445Z,99.90
2019-06-26T22:04:03.758Z,99.90
2019-06-26T22:06:31.269Z,99.90
2019-06-26T22:08:58.749Z,99.90
2019-06-26T22:11:26.963Z,99.90
2019-06-26T22:13:54.467Z,99.90
2019-06-26T22:16:22.633Z,99.90
2019-06-26T22:18:49.979Z,99.90
2019-06-26T22:21:18.026Z,99.90
2019-06-26T22:23:45.491Z,99.90
2019-06-26T22:26:14.431Z,99.90
2019-06-26T22:28:42.056Z,99.90
2019-06-26T22:31:09.556Z,99.90
2019-06-26T22:33:37.023Z,99.90
2019-06-26T22:36:04.546Z,99.90
2019-06-26T22:38:32.337Z,99.90
2019-06-26T22:41:00.178Z,99.90
2019-06-26T22:43:27.573Z,99.90
2019-06-26T22:45:55.299Z,99.90
2019-06-26T22:48:22.992Z,99.90
2019-06-26T22:50:50.502Z,99.90
2019-06-26T22:53:17.953Z,99.90
2019-06-26T22:55:45.393Z,99.90
2019-06-26T22:58:12.865Z,99.90
2019-06-26T23:00:40.660Z,99.90
2019-06-26T23:03:08.165Z,99.90
2019-06-26T23:05:36.346Z,99.90
2019-06-26T23:08:03.853Z,99.90
2019-06-26T23:10:31.753Z,99.90
2019-06-26T23:12:59.244Z,99.90
2019-06-26T23:15:26.803Z,99.90
2019-06-26T23:17:54.779Z,99.90
2019-06-26T23:20:22.146Z,99.90
2019-06-26T23:22:49.667Z,99.90
2019-06-26T23:25:17.172Z,99.90
2019-06-26T23:27:44.768Z,99.90
2019-06-26T23:30:17.850Z,99.90
2019-06-26T23:32:45.737Z,99.90
2019-06-26T23:35:13.377Z,99.90
2019-06-26T23:37:42.005Z,99.90
2019-06-26T23:40:10.025Z,99.90
2019-06-26T23:42:37.557Z,99.90
2019-06-26T23:45:05.423Z,99.90
2019-06-26T23:47:33.097Z,99.90
2019-06-26T23:50:00.845Z,99.90
2019-06-26T23:52:28.237Z,99.90
2019-06-26T23:54:55.788Z,99.90
2019-06-26T23:57:23.572Z,99.90
2019-06-26T23:59:51.619Z,99.90
